METAR Data
IDs: Format: Raw Decoded Include TAF

Data at: 2316 UTC 25 Oct 2021

KPPA 252255Z AUTO 16019G23KT 10SM CLR 25/08 A2992 RMK AO2 T02500082
KPPA 252235Z AUTO 16016G24KT 10SM CLR 25/08 A2992 RMK AO2 T02520083
KPPA 252210Z AUTO 16019KT 10SM CLR 26/09 A2993 RMK AO2 T02570086
KPPA 252155Z AUTO 15017G21KT 10SM CLR 26/09 A2992 RMK AO2 T02600086
KPPA 252135Z AUTO 17019G22KT 10SM CLR 26/08 A2993 RMK AO2 T02620083
KPPA 252115Z AUTO 16019G24KT 10SM CLR 26/09 A2993 RMK AO2 T02620085
KPPA 252055Z AUTO 17018G24KT 10SM CLR 26/09 A2994 RMK AO2 T02570085
KPPA 252035Z AUTO 16016G24KT 10SM CLR 26/09 A2994 RMK AO2 T02550085
KPPA 252015Z AUTO 16020G23KT 10SM CLR 25/08 A2995 RMK AO2 T02510081
KPPA 251955Z AUTO 16017G25KT 10SM CLR 25/08 A2996 RMK AO2 T02500077
KPPA 251935Z AUTO 17020G26KT 10SM CLR 25/08 A2996 RMK AO2 T02500075
KPPA 251920Z AUTO 15019G27KT 10SM CLR 24/07 A2996 RMK AO2 T02440071
KPPA 251855Z AUTO 17022G25KT 10SM CLR 25/07 A2998 RMK AO2 T02520067
KPPA 251835Z AUTO 16020G26KT 10SM CLR 25/06 A2998 RMK AO2 T02470061
KPPA 251815Z AUTO 17020G26KT 10SM CLR 24/06 A3000 RMK AO2 T02380058
KPPA 251755Z AUTO 17018G25KT 10SM CLR 24/06 A3000 RMK AO2 T02400058 10245 20117
KPPA 251735Z AUTO 17018G26KT 10SM CLR 24/07 A3001 RMK AO2 T02380065
KPPA 251715Z AUTO 16021G27KT 10SM CLR 23/07 A3001 RMK AO2 T02320066
KPPA 251650Z AUTO 16020G27KT 10SM CLR 23/06 A3002 RMK AO2 T02320060
KPPA 251635Z AUTO 16022G28KT 10SM CLR 22/06 A3002 RMK AO2 T02230058
KPPA 251610Z AUTO 16020G26KT 10SM CLR 21/05 A3003 RMK AO2 T02140052
KPPA 251555Z AUTO 16020G28KT 10SM CLR 21/05 A3003 RMK AO2 T02090051
KPPA 251535Z AUTO 17021G29KT 10SM CLR 21/06 A3003 RMK AO2 T02050056
KPPA 251515Z AUTO 16016G25KT 10SM CLR 20/07 A3003 RMK AO2 T01950071
KPPA 251455Z AUTO 17013G19KT 10SM CLR 18/09 A3004 RMK AO2 T01830085
KPPA 251435Z AUTO 16013G17KT 10SM CLR 17/09 A3004 RMK AO2 T01700091
KPPA 251410Z AUTO 16011KT 10SM CLR 14/09 A3004 RMK AO2 T01440088
KPPA 251355Z AUTO 16011KT 10SM CLR 13/08 A3003 RMK AO2 T01330083
KPPA 251335Z AUTO 17011KT 10SM CLR 13/08 A3003 RMK AO2 T01260077
KPPA 251315Z AUTO 16010KT 10SM CLR 13/08 A3003 RMK AO2 T01250077
KPPA 251255Z AUTO 16009KT 10SM CLR 12/08 A3003 RMK AO2 T01180080
KPPA 251235Z AUTO 17008KT 10SM CLR 12/08 A3003 RMK AO2 T01200082
KPPA 251210Z AUTO 15010KT 10SM CLR 13/09 A3002 RMK AO2 T01280085
KPPA 251155Z AUTO 16012KT 10SM CLR 13/09 A3002 RMK AO2 T01300086 10132 20097
KPPA 251135Z AUTO 16010KT 10SM CLR 13/09 A3002 RMK AO2 T01270086
KPPA 251110Z AUTO 15011KT 10SM CLR 13/09 A3001 RMK AO2 T01250086
KPPA 251055Z AUTO 15012KT 10SM CLR 13/09 A3001 RMK AO2 T01290087
KPPA 251030Z AUTO 15008KT 10SM CLR 11/08 A3001 RMK AO2 T01130080
KPPA 251010Z AUTO 14009KT 10SM CLR 11/08 A3000 RMK AO2 T01100081
KPPA 250955Z AUTO 16005KT 10SM CLR 10/08 A3000 RMK AO2 T01040075
KPPA 250935Z AUTO 16008KT 10SM CLR 10/07 A3000 RMK AO2 T01030073
KPPA 250910Z AUTO 15006KT 10SM CLR 11/08 A3000 RMK AO2 T01090076
KPPA 250855Z AUTO 16008KT 10SM CLR 12/08 A3001 RMK AO2 T01150079
KPPA 250835Z AUTO 15008KT 10SM CLR 12/08 A3001 RMK AO2 T01150077
KPPA 250810Z AUTO 00000KT 10SM CLR 11/08 A3001 RMK AO2 T01060075
KPPA 250750Z AUTO 15007KT 10SM CLR 10/07 A3001 RMK AO2 T00970066
KPPA 250735Z AUTO 16005KT 10SM CLR 11/07 A3001 RMK AO2 T01070070
KPPA 250710Z AUTO 15006KT 10SM CLR 12/07 A3001 RMK AO2 T01170069
KPPA 250655Z AUTO 15006KT 10SM CLR 12/07 A3001 RMK AO2 T01200069
KPPA 250635Z AUTO 16004KT 10SM CLR 12/07 A3001 RMK AO2 T01190066
KPPA 250615Z AUTO 14008KT 10SM CLR 13/07 A3000 RMK AO2 T01320068
KPPA 250555Z AUTO 15007KT 10SM CLR 11/06 A3000 RMK AO2 T01080058 10193 20108 402410108
KPPA 250535Z AUTO 14007KT 10SM CLR 13/06 A3000 RMK AO2 T01280061
KPPA 250515Z AUTO 14008KT 10SM CLR 13/06 A3000 RMK AO2 T01320060
KPPA 250500Z AUTO 13006KT 10SM CLR 13/06 A3000 RMK AO2 T01330060
KPPA 250435Z AUTO 13007KT 10SM CLR 13/06 A2999 RMK AO2 T01330060
KPPA 250410Z AUTO 12007KT 10SM CLR 13/06 A2999 RMK AO2 T01330060
KPPA 250355Z AUTO 11009KT 10SM CLR 14/06 A2999 RMK AO2 T01360059
KPPA 250330Z AUTO 10008KT 10SM CLR 14/06 A2997 RMK AO2 T01400055
KPPA 250315Z AUTO 11008KT 10SM CLR 15/06 A2998 RMK AO2 T01450055
KPPA 250255Z AUTO 11008KT 10SM CLR 14/06 A2997 RMK AO2 T01440056
KPPA 250235Z AUTO 11007KT 10SM CLR 15/06 A2997 RMK AO2 T01460057
KPPA 250215Z AUTO 09006KT 10SM CLR 14/06 A2997 RMK AO2 T01360057
KPPA 250155Z AUTO 09007KT 10SM CLR 14/06 A2997 RMK AO2 T01360059
KPPA 250135Z AUTO 08009KT 10SM CLR 14/06 A2996 RMK AO2 T01430055
KPPA 250115Z AUTO 10007KT 10SM CLR 16/06 A2997 RMK AO2 T01550055
KPPA 250055Z AUTO 10005KT 7SM CLR 17/06 A2996 RMK AO2 T01650056
KPPA 250035Z AUTO 10005KT 10SM CLR 17/05 A2996 RMK AO2 T01700053
KPPA 250015Z AUTO 06005KT 10SM CLR 18/05 A2995 RMK AO2 T01840051
KPPA 242355Z AUTO 06004KT 10SM CLR 20/05 A2994 RMK AO2 T01960054 10241 20195
KPPA 242335Z AUTO 01003KT 7SM CLR 21/05 A2993 RMK AO2 T02120054
KPPA 242315Z AUTO 36003KT 10SM CLR 23/05 A2992 RMK AO2 T02280048
KPPA 242255Z AUTO 00000KT 10SM CLR 24/05 A2992 RMK AO2 T02350050
KPPA 242235Z AUTO 34004KT 10SM CLR 24/06 A2991 RMK AO2 T02360055
KPPA 242210Z AUTO 35004KT 10SM CLR 24/06 A2990 RMK AO2 T02370060
KPPA 242155Z AUTO 35006KT 10SM CLR 24/06 A2990 RMK AO2 T02410061
KPPA 242135Z AUTO 36006KT 10SM CLR 24/06 A2990 RMK AO2 T02380060
KPPA 242115Z AUTO 35006KT 10SM CLR 24/06 A2989 RMK AO2 T02350063
KPPA 242055Z AUTO 34006G14KT 10SM CLR 23/07 A2989 RMK AO2 T02340067
KPPA 242035Z AUTO 36008G16KT 10SM CLR 23/07 A2989 RMK AO2 T02300071
KPPA 242010Z AUTO 34008KT 290V350 10SM CLR 23/08 A2989 RMK AO2 T02250080
KPPA 241955Z AUTO 34008G14KT 10SM CLR 22/08 A2989 RMK AO2 T02230079
KPPA 241935Z AUTO 35010G17KT 10SM CLR 22/08 A2989 RMK AO2 T02220082
KPPA 241915Z AUTO 35012G15KT 300V360 10SM CLR 22/09 A2989 RMK AO2 T02160090
KPPA 241855Z AUTO 33008G16KT 10SM CLR 21/09 A2990 RMK AO2 T02140091
KPPA 241835Z AUTO 34011KT 10SM CLR 21/09 A2990 RMK AO2 T02070092
KPPA 241815Z AUTO 32012G17KT 10SM CLR 21/09 A2990 RMK AO2 T02050094
KPPA 241755Z AUTO 31013G16KT 10SM CLR 20/09 A2990 RMK AO2 T01950090 10196 20113
KPPA 241735Z AUTO 32010G16KT 10SM CLR 19/09 A2990 RMK AO2 T01900091
KPPA 241715Z AUTO 32009G15KT 10SM CLR 18/09 A2990 RMK AO2 T01840090
KPPA 241700Z AUTO 34012KT 10SM CLR 18/09 A2989 RMK AO2 T01770090
KPPA 241635Z AUTO 30014KT 10SM CLR 17/09 A2989 RMK AO2 T01730090
KPPA 241615Z AUTO 31013KT 10SM CLR 16/09 A2988 RMK AO2 T01640088
KPPA 241555Z AUTO 32013G16KT 10SM CLR 15/09 A2989 RMK AO2 T01540092
KPPA 241535Z AUTO 32009KT 10SM CLR 15/09 A2987 RMK AO2 T01500094
KPPA 241515Z AUTO 32011KT 10SM CLR 14/09 A2987 RMK AO2 T01360090
KPPA 241455Z AUTO 31011G15KT 10SM CLR 13/09 A2985 RMK AO2 T01320087
KPPA 241435Z AUTO 31012KT 10SM CLR 13/08 A2984 RMK AO2 T01320081
KPPA 241415Z AUTO 30008KT 10SM CLR 13/06 A2982 RMK AO2 T01260063
KPPA 241355Z AUTO 30008KT 10SM CLR 12/05 A2982 RMK AO2 T01210047
KPPA 241330Z AUTO 30007KT 10SM CLR 11/02 A2979 RMK AO2 T01140016
KPPA 241310Z AUTO 29008KT 10SM CLR 11/02 A2978 RMK AO2 T01140015
KPPA 241255Z AUTO 29007KT 10SM CLR 12/01 A2977 RMK AO2 T01240012
KPPA 241235Z AUTO 29009KT 10SM CLR 13/01 A2976 RMK AO2 T01320011
KPPA 241210Z AUTO 29008KT 10SM CLR 14/01 A2975 RMK AO2 T01400011
KPPA 241155Z AUTO 26009KT 10SM CLR 14/01 A2974 RMK AO2 T01400014 10211 20140
KPPA 241135Z AUTO 24009KT 10SM CLR 15/01 A2973 RMK AO2 T01520013